Terminal Aerodrome Forecast
Issued by NWS

Home | Current Version | Previous Version | Text Only | Print | Product List | Glossary On
Versions: 1 2 3 4 5 6 7 8 9 10 11 12 13 14 15 16
000
FTUS45 KABQ 021100 RRA
TAFTCC
TAF
KTCC 021142Z 0212/0312 13009KT 3SM BR OVC004
      TEMPO 0212/0215 1 1/2SM -FZDZ BR OVC002
     FM021500 20008KT P6SM OVC010
     FM021900 21012G18KT P6SM VCSH OVC020
     FM030300 22018G28KT P6SM OVC025=

USA.gov is the U.S. government's official web portal to all federal, state and local government web resources and services.